Time;durP1;ratioP1;P1;durP2;ratioP2;P2;SDS_P1;SDS_P2;PMS_P1;PMS_P2;Temp;Humidity;BMP_temperature;BMP_pressure;BME280_temperature;BME280_humidity;BME280_pressure;Samples;Min_cycle;Max_cycle;Signal;HPM_P1;HPM_P2
2021/06/21 00:00:08;;;;;;;7.00;1.30;;;19.20;99.90;;;;;;5054739;28;20488;-84
2021/06/21 00:02:33;;;;;;;12.60;1.48;;;19.20;99.90;;;;;;5045981;28;20041;-85
2021/06/21 00:04:59;;;;;;;11.15;1.80;;;19.10;99.90;;;;;;5051636;28;20201;-84
2021/06/21 00:07:25;;;;;;;9.45;1.85;;;19.10;99.90;;;;;;5043158;28;20021;-84
2021/06/21 00:09:50;;;;;;;8.05;1.63;;;19.10;99.90;;;;;;5051481;28;20044;-84
2021/06/21 00:12:17;;;;;;;14.63;1.92;;;19.10;99.90;;;;;;5042640;28;20041;-84
2021/06/21 00:14:45;;;;;;;10.85;1.75;;;19.10;99.90;;;;;;5051922;28;20029;-84
2021/06/21 00:17:11;;;;;;;7.20;1.75;;;19.10;99.90;;;;;;5056159;28;20032;-84
2021/06/21 00:19:36;;;;;;;7.28;1.38;;;19.10;99.90;;;;;;5054296;28;20092;-84
2021/06/21 00:22:04;;;;;;;8.93;1.52;;;19.10;99.90;;;;;;5048712;28;20606;-84
2021/06/21 00:24:31;;;;;;;7.25;1.40;;;19.10;99.90;;;;;;5053992;28;20381;-84
2021/06/21 00:26:57;;;;;;;7.22;1.52;;;19.00;99.90;;;;;;5053906;28;20020;-84
2021/06/21 00:29:22;;;;;;;7.78;1.10;;;19.00;99.90;;;;;;5055385;28;20500;-84
2021/06/21 00:31:48;;;;;;;11.57;1.55;;;19.00;99.90;;;;;;5046995;28;20414;-84
2021/06/21 00:34:14;;;;;;;7.97;1.83;;;19.10;99.90;;;;;;5054565;28;20021;-85
2021/06/21 00:36:40;;;;;;;9.32;1.30;;;19.00;99.90;;;;;;5056400;28;20559;-84
2021/06/21 00:39:07;;;;;;;6.57;1.13;;;19.10;99.90;;;;;;5056451;28;20340;-84
2021/06/21 00:41:35;;;;;;;9.57;1.65;;;19.10;99.90;;;;;;5046657;28;20056;-85
2021/06/21 00:44:01;;;;;;;6.13;1.05;;;19.10;99.90;;;;;;5047641;28;20021;-84
2021/06/21 00:46:27;;;;;;;7.38;1.30;;;19.10;99.90;;;;;;5048502;28;20029;-83
2021/06/21 00:48:53;;;;;;;10.23;1.40;;;19.10;99.90;;;;;;5053274;28;20501;-84
2021/06/21 00:51:19;;;;;;;7.75;1.40;;;19.00;99.90;;;;;;5046950;28;20025;-84
2021/06/21 00:53:46;;;;;;;9.25;1.42;;;19.00;99.90;;;;;;5055399;28;20032;-84
2021/06/21 00:56:11;;;;;;;11.07;2.00;;;18.90;99.90;;;;;;5045844;28;20051;-84
2021/06/21 00:58:37;;;;;;;9.27;1.58;;;18.90;99.90;;;;;;5055195;28;20041;-84
2021/06/21 01:01:04;;;;;;;6.82;1.52;;;18.90;99.90;;;;;;5043485;28;20221;-85
2021/06/21 01:03:30;;;;;;;9.85;1.55;;;18.90;99.90;;;;;;5052580;28;20498;-84
2021/06/21 01:05:56;;;;;;;10.13;1.65;;;19.00;99.90;;;;;;5051364;28;20091;-84
2021/06/21 01:08:21;;;;;;;7.78;1.45;;;19.00;99.90;;;;;;5036037;28;20123;-84
2021/06/21 01:10:51;;;;;;;14.10;1.73;;;19.00;99.90;;;;;;5052500;28;20033;-84
2021/06/21 01:13:58;;;;;;;6.68;1.50;;;19.00;99.90;;;;;;5041094;28;20072;-85
2021/06/21 01:16:28;;;;;;;8.20;1.50;;;19.00;99.90;;;;;;5044416;28;20068;-84
2021/06/21 01:19:17;;;;;;;7.40;1.58;;;19.00;99.90;;;;;;5054968;28;20025;-83
2021/06/21 01:21:54;;;;;;;12.65;1.58;;;19.00;99.90;;;;;;5055562;28;20021;-84
2021/06/21 01:24:31;;;;;;;8.40;1.27;;;19.10;99.90;;;;;;5054634;28;20029;-84
2021/06/21 01:27:12;;;;;;;7.95;1.63;;;19.10;99.90;;;;;;5053137;28;20569;-84
2021/06/21 01:29:53;;;;;;;6.35;1.73;;;19.10;99.90;;;;;;5054295;28;20068;-84
2021/06/21 01:32:18;;;;;;;6.88;1.75;;;19.00;99.90;;;;;;5049441;28;20151;-85
2021/06/21 01:34:51;;;;;;;9.15;1.60;;;19.10;99.90;;;;;;5053518;28;20684;-85
2021/06/21 01:37:21;;;;;;;6.88;1.65;;;19.00;99.90;;;;;;5046584;28;20344;-84
2021/06/21 01:39:49;;;;;;;7.40;1.90;;;19.00;99.90;;;;;;5053667;28;20060;-84
2021/06/21 01:42:18;;;;;;;9.10;1.60;;;19.00;99.90;;;;;;5046436;28;20025;-84
2021/06/21 01:44:55;;;;;;;6.85;1.20;;;19.00;99.90;;;;;;5052798;28;20025;-84
2021/06/21 01:47:23;;;;;;;7.63;1.17;;;19.00;99.90;;;;;;5049987;28;20616;-84
2021/06/21 01:49:49;;;;;;;9.80;1.52;;;19.10;99.90;;;;;;5053310;28;20017;-84
2021/06/21 01:52:17;;;;;;;7.10;1.20;;;19.10;99.90;;;;;;5053713;28;20386;-84
2021/06/21 01:54:53;;;;;;;9.88;1.65;;;19.10;99.90;;;;;;5053127;28;20035;-84
2021/06/21 01:57:23;;;;;;;8.15;1.48;;;19.10;99.90;;;;;;5054042;28;20094;-84
2021/06/21 01:59:51;;;;;;;9.15;1.70;;;19.10;99.90;;;;;;5050415;28;20021;-84
2021/06/21 02:02:19;;;;;;;8.23;1.60;;;19.10;99.90;;;;;;5047918;28;20021;-84
2021/06/21 02:04:48;;;;;;;7.75;1.08;;;19.10;99.90;;;;;;5054371;28;20021;-84
2021/06/21 02:07:17;;;;;;;10.88;1.50;;;19.00;99.90;;;;;;5049717;28;20029;-84
2021/06/21 02:09:45;;;;;;;8.77;1.30;;;19.00;99.90;;;;;;5048497;28;20037;-84
2021/06/21 02:12:12;;;;;;;6.35;1.20;;;19.00;99.90;;;;;;5039658;28;20036;-85
2021/06/21 02:14:39;;;;;;;7.93;1.60;;;18.90;99.90;;;;;;5050153;28;20049;-84
2021/06/21 02:17:05;;;;;;;7.22;1.42;;;18.90;99.90;;;;;;5053510;28;20021;-84
2021/06/21 02:19:32;;;;;;;9.30;1.38;;;18.90;99.90;;;;;;5051679;28;20054;-84
2021/06/21 02:21:59;;;;;;;7.38;1.10;;;18.90;99.90;;;;;;5045751;28;20047;-84
2021/06/21 02:24:26;;;;;;;4.40;1.02;;;18.90;99.90;;;;;;5053308;28;20055;-84
2021/06/21 02:26:53;;;;;;;6.88;1.15;;;18.90;99.90;;;;;;5040771;28;20109;-84
2021/06/21 02:29:21;;;;;;;5.20;0.88;;;19.00;99.90;;;;;;5053527;28;20052;-84
2021/06/21 02:31:47;;;;;;;6.45;1.50;;;19.00;99.90;;;;;;5052550;28;20056;-84
2021/06/21 02:34:13;;;;;;;3.13;0.80;;;19.00;99.90;;;;;;5050154;28;20033;-84
2021/06/21 02:36:39;;;;;;;6.03;1.35;;;18.90;99.90;;;;;;5044563;28;20335;-84
2021/06/21 02:39:08;;;;;;;5.28;0.90;;;18.90;99.90;;;;;;5051685;28;20107;-84
2021/06/21 02:41:34;;;;;;;6.80;0.88;;;19.00;99.90;;;;;;5047202;28;20096;-84
2021/06/21 02:44:00;;;;;;;7.32;1.20;;;19.00;99.90;;;;;;5049606;28;20041;-84
2021/06/21 02:46:26;;;;;;;4.50;0.95;;;19.10;99.90;;;;;;5047151;28;20025;-84
2021/06/21 02:48:52;;;;;;;5.40;1.10;;;19.10;99.90;;;;;;5051439;28;20100;-84
2021/06/21 02:51:29;;;;;;;4.50;0.70;;;19.10;99.90;;;;;;5054350;28;20020;-84
2021/06/21 02:54:08;;;;;;;4.13;1.10;;;19.00;99.90;;;;;;5051719;28;20110;-84
2021/06/21 02:56:46;;;;;;;4.30;0.95;;;19.00;99.90;;;;;;5044638;28;20029;-84
2021/06/21 02:59:18;;;;;;;3.95;1.00;;;19.00;99.90;;;;;;5042947;28;20036;-84
2021/06/21 03:01:49;;;;;;;8.27;1.27;;;18.90;99.90;;;;;;5053873;28;20021;-84
2021/06/21 03:04:16;;;;;;;8.38;1.55;;;18.90;99.90;;;;;;5053841;28;20025;-84
2021/06/21 03:06:45;;;;;;;5.93;1.30;;;18.90;99.90;;;;;;5048865;28;20045;-84
2021/06/21 03:09:12;;;;;;;7.60;1.17;;;18.80;99.90;;;;;;5053859;28;20052;-84
2021/06/21 03:11:39;;;;;;;6.78;1.20;;;18.90;99.90;;;;;;5048345;28;20413;-84
2021/06/21 03:14:05;;;;;;;5.57;1.33;;;18.80;99.90;;;;;;5050572;28;20096;-84
2021/06/21 03:16:33;;;;;;;7.18;1.40;;;18.80;99.90;;;;;;5050923;28;20033;-84
2021/06/21 03:19:00;;;;;;;9.02;1.55;;;18.80;99.90;;;;;;5051157;28;20064;-84
2021/06/21 03:21:26;;;;;;;7.22;1.70;;;18.70;99.90;;;;;;5053562;28;20017;-84
2021/06/21 03:23:53;;;;;;;10.90;2.28;;;18.70;99.90;;;;;;5057034;28;20040;-84
2021/06/21 03:26:27;;;;;;;6.82;1.33;;;18.70;99.90;;;;;;5049682;28;20337;-84
2021/06/21 03:28:54;;;;;;;11.43;1.77;;;18.60;99.90;;;;;;5057385;28;20289;-85
2021/06/21 03:31:21;;;;;;;6.35;1.33;;;18.60;99.90;;;;;;5057008;28;20033;-84
2021/06/21 03:33:47;;;;;;;8.93;1.70;;;18.60;99.90;;;;;;5055367;28;20021;-84
2021/06/21 03:36:13;;;;;;;8.20;2.03;;;18.40;99.90;;;;;;5048303;28;20036;-84
2021/06/21 03:38:39;;;;;;;11.70;2.05;;;18.30;99.90;;;;;;5051454;28;20378;-85
2021/06/21 03:41:05;;;;;;;10.65;1.67;;;18.30;99.90;;;;;;5046549;28;20112;-84
2021/06/21 03:43:33;;;;;;;5.32;1.55;;;18.30;99.90;;;;;;5057343;28;20468;-85
2021/06/21 03:46:01;;;;;;;8.95;1.60;;;18.30;99.90;;;;;;5049722;28;20021;-85
2021/06/21 03:48:28;;;;;;;8.90;2.22;;;18.20;99.90;;;;;;5054733;28;20028;-85
2021/06/21 03:50:54;;;;;;;9.02;1.80;;;18.20;99.90;;;;;;5048606;28;20025;-85
2021/06/21 03:53:24;;;;;;;7.32;1.80;;;18.30;99.90;;;;;;5057317;28;20032;-93
2021/06/21 03:55:50;;;;;;;9.13;1.58;;;18.40;99.90;;;;;;5053977;28;20029;-85
2021/06/21 03:58:17;;;;;;;7.40;1.58;;;18.30;99.90;;;;;;5051883;28;20056;-85
2021/06/21 04:00:43;;;;;;;10.23;1.40;;;18.40;99.90;;;;;;5053921;28;20021;-85
2021/06/21 04:03:09;;;;;;;8.85;1.83;;;18.30;99.90;;;;;;5050269;28;20029;-85
2021/06/21 04:05:39;;;;;;;12.68;1.80;;;18.40;99.90;;;;;;5055819;28;20025;-85
2021/06/21 04:08:13;;;;;;;8.38;1.75;;;18.30;99.90;;;;;;5047955;28;20385;-85
2021/06/21 04:10:39;;;;;;;4.47;1.15;;;18.40;99.90;;;;;;5055753;28;20021;-85
2021/06/21 04:13:06;;;;;;;8.82;1.95;;;18.30;99.90;;;;;;5048940;28;20064;-86
2021/06/21 04:15:32;;;;;;;12.25;1.90;;;18.30;99.90;;;;;;5059997;28;20032;-85
2021/06/21 04:17:59;;;;;;;5.28;1.42;;;18.30;99.90;;;;;;5051480;28;20043;-84
2021/06/21 04:20:26;;;;;;;12.30;2.00;;;18.30;99.90;;;;;;5058150;28;20040;-84
2021/06/21 04:22:52;;;;;;;8.00;1.60;;;18.10;99.90;;;;;;5059744;28;20025;-85
2021/06/21 04:25:19;;;;;;;7.28;1.30;;;18.10;99.90;;;;;;5058513;28;20456;-85
2021/06/21 04:27:45;;;;;;;5.78;1.67;;;18.00;99.90;;;;;;5060552;28;20177;-84
2021/06/21 04:30:13;;;;;;;10.00;1.73;;;18.10;99.90;;;;;;5058777;28;20515;-85
2021/06/21 04:32:39;;;;;;;9.57;1.92;;;18.00;99.90;;;;;;5046389;28;20112;-85
2021/06/21 04:35:09;;;;;;;10.35;1.77;;;18.00;99.90;;;;;;5054909;28;20021;-85
2021/06/21 04:37:35;;;;;;;8.13;1.73;;;18.00;99.90;;;;;;5060223;28;20048;-85
2021/06/21 04:40:02;;;;;;;7.00;1.30;;;18.00;99.90;;;;;;5053849;28;20425;-84
2021/06/21 04:42:28;;;;;;;7.30;1.38;;;18.10;99.90;;;;;;5050387;28;20120;-85
2021/06/21 04:44:54;;;;;;;7.50;1.35;;;18.20;99.90;;;;;;5055245;28;20021;-84
2021/06/21 04:47:24;;;;;;;7.85;1.45;;;18.20;99.90;;;;;;5050076;28;20062;-84
2021/06/21 04:49:54;;;;;;;7.63;1.55;;;18.20;99.90;;;;;;5054861;28;20033;-84
2021/06/21 04:52:22;;;;;;;6.85;1.50;;;18.30;99.90;;;;;;5050384;28;20514;-85
2021/06/21 04:54:49;;;;;;;7.90;1.60;;;18.30;99.90;;;;;;5054973;28;20025;-87
2021/06/21 04:57:15;;;;;;;7.18;1.20;;;18.30;99.90;;;;;;5047490;28;20044;-86
2021/06/21 04:59:41;;;;;;;7.65;1.80;;;18.30;99.90;;;;;;5054187;28;20029;-87
2021/06/21 05:02:07;;;;;;;6.00;1.10;;;18.30;99.90;;;;;;5047875;28;20063;-87
2021/06/21 05:04:32;;;;;;;8.05;1.52;;;18.30;99.90;;;;;;5055180;28;20035;-86
2021/06/21 05:06:58;;;;;;;8.10;1.27;;;18.30;99.90;;;;;;5045974;28;20101;-87
2021/06/21 05:09:24;;;;;;;4.32;1.10;;;18.40;99.90;;;;;;5053330;28;20373;-87
2021/06/21 05:11:49;;;;;;;6.97;1.45;;;18.40;99.90;;;;;;5045530;28;20569;-88
2021/06/21 05:14:15;;;;;;;7.20;1.50;;;18.40;99.90;;;;;;5033498;28;20029;-87
2021/06/21 05:16:42;;;;;;;6.95;1.38;;;18.50;99.90;;;;;;5045711;28;20076;-87
2021/06/21 05:19:08;;;;;;;8.93;1.58;;;18.50;99.90;;;;;;5044033;28;20086;-86
2021/06/21 05:21:33;;;;;;;5.50;1.20;;;18.50;99.90;;;;;;5044954;28;20454;-86
2021/06/21 05:24:00;;;;;;;7.38;1.27;;;18.60;99.90;;;;;;5048308;28;20029;-86
2021/06/21 05:26:26;;;;;;;7.03;1.40;;;18.70;99.90;;;;;;5046206;28;20677;-87
2021/06/21 05:28:51;;;;;;;7.22;1.08;;;18.70;99.90;;;;;;5042725;28;20297;-87
2021/06/21 05:31:18;;;;;;;7.55;1.20;;;18.70;99.90;;;;;;5049108;28;20059;-87
2021/06/21 05:33:44;;;;;;;11.52;1.70;;;18.80;99.90;;;;;;5046626;28;20029;-87
2021/06/21 05:36:10;;;;;;;5.18;1.05;;;18.80;99.90;;;;;;5049177;28;20091;-88
2021/06/21 05:38:36;;;;;;;4.53;1.20;;;18.80;99.90;;;;;;5050439;28;20021;-86
2021/06/21 05:41:02;;;;;;;5.50;0.98;;;18.80;99.90;;;;;;5041806;28;20017;-87
2021/06/21 05:43:28;;;;;;;4.47;1.33;;;18.70;99.90;;;;;;5049009;28;20508;-87
2021/06/21 05:45:54;;;;;;;5.82;1.23;;;18.70;99.90;;;;;;5047705;28;20030;-86
2021/06/21 05:48:20;;;;;;;8.63;1.45;;;18.80;99.90;;;;;;5047792;28;20029;-86
2021/06/21 05:50:47;;;;;;;4.15;1.00;;;18.90;99.90;;;;;;5049085;28;20029;-87
2021/06/21 05:53:12;;;;;;;6.53;1.00;;;18.90;99.90;;;;;;5050519;28;20072;-86
2021/06/21 05:55:38;;;;;;;7.30;1.25;;;19.00;99.90;;;;;;5049636;28;20059;-88
2021/06/21 05:58:04;;;;;;;5.05;0.90;;;19.20;99.90;;;;;;5050104;28;20049;-88
2021/06/21 06:00:30;;;;;;;5.80;0.85;;;19.20;99.90;;;;;;5048487;28;20032;-88
2021/06/21 06:02:55;;;;;;;4.22;1.10;;;19.10;99.90;;;;;;5042034;28;20033;-88
2021/06/21 06:05:22;;;;;;;8.07;1.20;;;19.00;99.90;;;;;;5048243;28;20029;-87
2021/06/21 06:07:49;;;;;;;6.93;1.42;;;19.10;99.90;;;;;;5040056;28;20033;-87
2021/06/21 06:10:15;;;;;;;6.47;1.38;;;19.10;99.90;;;;;;5049519;28;20029;-87
2021/06/21 06:12:42;;;;;;;7.93;1.35;;;19.20;99.90;;;;;;5038918;28;20497;-87
2021/06/21 06:15:08;;;;;;;6.32;1.52;;;19.30;99.90;;;;;;5047963;28;20103;-88
2021/06/21 06:17:34;;;;;;;6.20;1.30;;;19.30;99.90;;;;;;5039691;28;20028;-87
2021/06/21 06:20:00;;;;;;;8.07;1.23;;;19.50;99.90;;;;;;5048331;28;20418;-86
2021/06/21 06:22:25;;;;;;;8.15;1.58;;;19.50;99.90;;;;;;5037092;28;20059;-86
2021/06/21 06:24:52;;;;;;;6.95;1.25;;;19.50;99.90;;;;;;5048068;28;20139;-86
2021/06/21 06:27:17;;;;;;;4.90;1.08;;;19.60;99.90;;;;;;5037585;28;20037;-86
2021/06/21 06:29:43;;;;;;;6.38;1.10;;;19.70;99.90;;;;;;5047847;28;20440;-86
2021/06/21 06:32:10;;;;;;;5.70;1.38;;;19.60;99.90;;;;;;5036854;28;20116;-75
2021/06/21 06:34:36;;;;;;;8.40;1.55;;;19.50;99.90;;;;;;5032013;28;20052;-75
2021/06/21 06:37:02;;;;;;;5.35;1.10;;;19.70;99.90;;;;;;5043517;28;20079;-74
2021/06/21 06:39:28;;;;;;;3.97;0.82;;;19.60;99.90;;;;;;5048000;28;20017;-74
2021/06/21 06:41:53;;;;;;;8.75;1.15;;;19.70;99.90;;;;;;5040317;28;20485;-74
2021/06/21 06:44:20;;;;;;;6.40;1.27;;;19.70;99.90;;;;;;5048534;28;20032;-74
2021/06/21 06:46:46;;;;;;;8.05;1.60;;;19.80;99.90;;;;;;5043514;28;20032;-74
2021/06/21 06:49:11;;;;;;;4.88;1.17;;;19.90;99.90;;;;;;5048472;28;20107;-74
2021/06/21 06:51:54;;;;;;;7.03;1.08;;;19.90;99.90;;;;;;5043023;28;20083;-74
2021/06/21 06:54:26;;;;;;;4.90;0.82;;;20.00;99.90;;;;;;5048793;28;20079;-75
2021/06/21 06:57:02;;;;;;;5.82;1.25;;;20.00;99.90;;;;;;5041855;28;20037;-74
2021/06/21 06:59:34;;;;;;;6.28;0.93;;;19.90;99.90;;;;;;5048585;28;20249;-75
2021/06/21 07:02:02;;;;;;;6.93;1.02;;;20.10;99.90;;;;;;5038824;28;20036;-75
2021/06/21 07:04:30;;;;;;;5.25;0.98;;;20.00;99.90;;;;;;5044870;28;20087;-74
2021/06/21 07:06:59;;;;;;;9.68;1.55;;;20.00;99.90;;;;;;5045106;28;20037;-74
2021/06/21 07:09:26;;;;;;;4.82;1.00;;;20.10;99.90;;;;;;5045986;28;20021;-75
2021/06/21 07:11:52;;;;;;;5.05;1.10;;;20.30;99.90;;;;;;5044208;28;20463;-74
2021/06/21 07:14:19;;;;;;;5.93;1.27;;;20.20;99.90;;;;;;5046062;28;20029;-74
2021/06/21 07:16:46;;;;;;;5.80;0.95;;;20.30;99.90;;;;;;5046461;28;20560;-74
2021/06/21 07:19:13;;;;;;;4.45;0.70;;;20.40;99.90;;;;;;5033266;28;20421;-74
2021/06/21 07:21:39;;;;;;;4.90;1.13;;;20.60;99.90;;;;;;5044465;28;20041;-74
2021/06/21 07:24:06;;;;;;;7.68;1.50;;;20.60;99.90;;;;;;5034611;28;20056;-74
2021/06/21 07:26:31;;;;;;;5.60;1.23;;;20.60;99.90;;;;;;5043544;28;20025;-74
2021/06/21 07:28:57;;;;;;;3.97;0.98;;;20.60;99.90;;;;;;5037849;28;20025;-74
2021/06/21 07:31:23;;;;;;;4.80;0.90;;;20.70;99.90;;;;;;5047862;28;20033;-75
2021/06/21 07:33:49;;;;;;;6.22;1.23;;;20.60;99.90;;;;;;5038148;28;20033;-74
2021/06/21 07:36:15;;;;;;;9.60;1.10;;;20.60;99.90;;;;;;5041691;28;20037;-75
2021/06/21 07:38:41;;;;;;;6.30;1.15;;;20.60;99.90;;;;;;5040439;28;20608;-75
2021/06/21 07:41:07;;;;;;;5.55;1.10;;;20.50;99.90;;;;;;5047040;28;20033;-75
2021/06/21 07:43:33;;;;;;;4.78;0.88;;;20.60;99.90;;;;;;5039831;28;20025;-75
2021/06/21 07:45:59;;;;;;;6.97;1.45;;;20.70;99.90;;;;;;5048741;28;20056;-75
2021/06/21 07:48:24;;;;;;;3.92;1.08;;;20.80;99.90;;;;;;5038158;28;20081;-79
2021/06/21 07:50:51;;;;;;;2.88;0.73;;;20.70;99.90;;;;;;5049121;28;20028;-75
2021/06/21 07:53:17;;;;;;;5.93;1.23;;;20.70;99.90;;;;;;5043660;28;20044;-75
2021/06/21 07:55:43;;;;;;;1.60;0.50;;;20.70;99.90;;;;;;5047801;28;20104;-74
2021/06/21 07:58:09;;;;;;;3.22;0.65;;;20.70;99.90;;;;;;5043377;28;20352;-75
2021/06/21 08:00:38;;;;;;;4.32;0.85;;;20.70;99.90;;;;;;5047619;28;20477;-74
2021/06/21 08:03:06;;;;;;;3.97;0.90;;;20.80;99.90;;;;;;5038777;28;20249;-75
2021/06/21 08:05:32;;;;;;;3.90;0.90;;;20.90;99.90;;;;;;5049312;28;20024;-75
2021/06/21 08:07:57;;;;;;;4.93;1.10;;;21.00;99.90;;;;;;5050188;28;20027;-74
2021/06/21 08:10:23;;;;;;;4.35;0.50;;;21.00;99.90;;;;;;5047315;28;20025;-75
2021/06/21 08:12:49;;;;;;;2.65;0.60;;;20.90;99.90;;;;;;5050005;28;20537;-74
2021/06/21 08:15:15;;;;;;;1.38;0.43;;;20.90;99.90;;;;;;5047371;28;20091;-75
2021/06/21 08:17:41;;;;;;;4.10;0.68;;;20.90;99.90;;;;;;5049879;28;20505;-74
2021/06/21 08:20:10;;;;;;;2.75;0.57;;;20.90;99.90;;;;;;5048856;28;20108;-75
2021/06/21 08:22:35;;;;;;;4.25;0.80;;;20.90;99.90;;;;;;5045001;28;20032;-74
2021/06/21 08:25:02;;;;;;;2.83;0.82;;;20.90;99.90;;;;;;5044168;28;20025;-75
2021/06/21 08:27:29;;;;;;;5.32;0.70;;;21.00;99.90;;;;;;5046411;28;20017;-74
2021/06/21 08:29:54;;;;;;;2.13;0.70;;;21.10;99.90;;;;;;5041853;28;20092;-74
2021/06/21 08:32:20;;;;;;;1.75;0.30;;;21.20;99.90;;;;;;5041413;28;20125;-74
2021/06/21 08:34:46;;;;;;;5.40;0.80;;;21.20;99.90;;;;;;5046643;28;20017;-74
2021/06/21 08:37:11;;;;;;;4.90;0.85;;;21.20;99.90;;;;;;5044919;28;20040;-74
2021/06/21 08:39:38;;;;;;;3.67;0.57;;;21.00;99.90;;;;;;5039782;28;20028;-75
2021/06/21 08:42:08;;;;;;;2.63;0.60;;;20.90;99.90;;;;;;5049998;28;20025;-75
2021/06/21 08:44:35;;;;;;;3.92;0.68;;;21.00;99.90;;;;;;5044508;28;20081;-75
2021/06/21 08:47:04;;;;;;;6.05;0.90;;;21.10;99.90;;;;;;5048145;28;20100;-74
2021/06/21 08:49:33;;;;;;;2.50;0.63;;;21.00;99.90;;;;;;5043484;28;20017;-73
2021/06/21 08:51:59;;;;;;;4.38;0.70;;;20.90;99.90;;;;;;5044111;28;20029;-75
2021/06/21 08:54:24;;;;;;;2.97;0.80;;;20.90;99.90;;;;;;5050379;28;20382;-75
2021/06/21 08:56:54;;;;;;;1.98;0.50;;;21.00;99.90;;;;;;5050350;28;20048;-74
2021/06/21 08:59:20;;;;;;;3.90;0.60;;;21.00;99.90;;;;;;5050306;28;20028;-76
2021/06/21 09:01:46;;;;;;;3.63;0.60;;;21.00;99.90;;;;;;5050493;28;20397;-75
2021/06/21 09:04:12;;;;;;;3.85;0.70;;;21.00;99.90;;;;;;5050489;28;20102;-76
2021/06/21 09:06:39;;;;;;;5.03;0.60;;;21.00;99.90;;;;;;5043933;28;20116;-75
2021/06/21 09:09:06;;;;;;;3.40;0.70;;;20.90;99.90;;;;;;5048076;28;20022;-74
2021/06/21 09:11:50;;;;;;;1.52;0.50;;;21.00;99.90;;;;;;5044135;28;20497;-75
2021/06/21 09:14:24;;;;;;;2.77;0.40;;;21.10;99.90;;;;;;5050274;28;20032;-75
2021/06/21 09:17:01;;;;;;;4.75;0.85;;;21.20;99.90;;;;;;5043633;28;20401;-75
2021/06/21 09:19:28;;;;;;;2.67;0.70;;;21.30;99.90;;;;;;5049924;28;20021;-75
2021/06/21 09:21:54;;;;;;;3.00;0.70;;;21.60;99.90;;;;;;5042223;28;20026;-76
2021/06/21 09:24:28;;;;;;;2.13;0.65;;;21.60;99.90;;;;;;5049764;28;20478;-75
2021/06/21 09:26:56;;;;;;;1.13;0.30;;;21.50;99.90;;;;;;5041352;28;20032;-75
2021/06/21 09:29:39;;;;;;;2.42;0.50;;;21.30;99.90;;;;;;5049763;28;20017;-75
2021/06/21 09:32:05;;;;;;;3.90;0.60;;;21.40;99.90;;;;;;5040556;28;20063;-75
2021/06/21 09:34:31;;;;;;;4.20;0.45;;;21.40;99.90;;;;;;5048863;28;20024;-75
2021/06/21 09:37:18;;;;;;;3.90;0.80;;;21.40;99.90;;;;;;5039697;28;20029;-75
2021/06/21 09:39:45;;;;;;;2.80;0.60;;;21.40;99.90;;;;;;5051125;28;20036;-75
2021/06/21 09:42:24;;;;;;;1.70;0.60;;;21.40;99.90;;;;;;5039314;28;20470;-76
2021/06/21 09:44:56;;;;;;;2.72;0.50;;;21.40;99.90;;;;;;5037119;28;20150;-76
2021/06/21 09:47:30;;;;;;;2.33;0.50;;;21.40;99.90;;;;;;5039560;28;20021;-76
2021/06/21 09:50:04;;;;;;;6.20;0.63;;;21.40;99.90;;;;;;5044961;28;20168;-76
2021/06/21 09:52:52;;;;;;;4.53;0.70;;;21.40;99.90;;;;;;5046711;28;20036;-76
2021/06/21 09:55:24;;;;;;;3.25;0.70;;;21.70;99.90;;;;;;5037652;28;20190;-76
2021/06/21 09:58:14;;;;;;;2.60;0.68;;;21.90;99.90;;;;;;5043960;28;20132;-76
2021/06/21 10:00:44;;;;;;;4.72;0.70;;;21.90;99.90;;;;;;5048984;28;20028;-77
2021/06/21 10:03:16;;;;;;;1.75;0.50;;;22.00;99.90;;;;;;5049255;28;20020;-76
2021/06/21 10:06:03;;;;;;;3.40;0.70;;;22.00;99.90;;;;;;5046573;28;20049;-74
2021/06/21 10:08:49;;;;;;;3.22;0.95;;;21.90;99.90;;;;;;5048963;28;20028;-75
2021/06/21 10:11:36;;;;;;;5.55;0.60;;;22.20;99.90;;;;;;5035244;28;20026;-75
2021/06/21 10:14:05;;;;;;;2.63;0.68;;;22.30;99.90;;;;;;5041526;28;20021;-76
2021/06/21 10:16:31;;;;;;;0.98;0.43;;;22.30;99.90;;;;;;5039296;28;20024;-75
2021/06/21 10:18:57;;;;;;;4.80;0.70;;;22.60;99.90;;;;;;5046112;28;20021;-76
2021/06/21 10:21:25;;;;;;;3.53;0.60;;;22.60;99.90;;;;;;5038955;28;20025;-76
2021/06/21 10:23:50;;;;;;;4.07;0.70;;;22.60;99.90;;;;;;5039293;28;20060;-77
2021/06/21 10:26:16;;;;;;;2.15;0.60;;;22.70;99.90;;;;;;5040245;28;20473;-77
2021/06/21 10:28:44;;;;;;;2.83;0.55;;;22.70;99.90;;;;;;5043876;28;20036;-77
2021/06/21 10:31:12;;;;;;;1.60;0.40;;;22.90;99.90;;;;;;5037077;28;20028;-76
2021/06/21 10:33:38;;;;;;;3.05;0.60;;;22.80;99.90;;;;;;5032289;28;20049;-75
2021/06/21 10:36:06;;;;;;;5.47;0.70;;;22.70;99.90;;;;;;5043036;28;20050;-75
2021/06/21 10:38:32;;;;;;;3.65;0.73;;;22.60;99.90;;;;;;5047755;28;20040;-76
2021/06/21 10:41:04;;;;;;;3.88;0.73;;;22.70;99.90;;;;;;5039900;28;20037;-75
2021/06/21 10:43:47;;;;;;;3.33;1.05;;;22.80;99.90;;;;;;5031789;28;20081;-75
2021/06/21 10:46:30;;;;;;;2.65;0.70;;;22.80;99.90;;;;;;5040031;28;20524;-75
2021/06/21 10:49:02;;;;;;;1.65;0.40;;;22.60;99.90;;;;;;5036124;28;20115;-75
2021/06/21 10:51:46;;;;;;;1.70;0.47;;;22.60;99.90;;;;;;5042535;28;20120;-75
2021/06/21 10:54:23;;;;;;;2.40;0.40;;;22.50;99.90;;;;;;5048254;28;20036;-75
2021/06/21 10:56:55;;;;;;;3.45;0.60;;;22.80;99.90;;;;;;5041703;28;20025;-75
2021/06/21 10:59:28;;;;;;;2.40;0.63;;;22.70;99.80;;;;;;5048423;28;20815;-78
2021/06/21 11:01:56;;;;;;;1.60;0.40;;;22.50;98.40;;;;;;5039046;28;20040;-78
2021/06/21 11:04:37;;;;;;;3.78;0.40;;;22.50;98.30;;;;;;5041354;28;20416;-78
2021/06/21 11:07:25;;;;;;;2.90;0.40;;;22.70;98.60;;;;;;5036671;28;20021;-76
2021/06/21 11:09:54;;;;;;;1.90;0.57;;;22.80;97.00;;;;;;5046703;28;20032;-77
2021/06/21 11:12:23;;;;;;;1.08;0.30;;;23.10;97.00;;;;;;5043460;28;20039;-76
2021/06/21 11:15:11;;;;;;;2.38;0.38;;;23.10;95.40;;;;;;5044915;28;20024;-76
2021/06/21 11:17:43;;;;;;;1.33;0.30;;;23.00;94.30;;;;;;5033911;28;20026;-75
2021/06/21 11:20:33;;;;;;;0.40;0.35;;;23.20;96.30;;;;;;5042611;28;20310;-75
2021/06/21 11:23:02;;;;;;;1.10;0.40;;;23.50;94.30;;;;;;5037997;28;20047;-75
2021/06/21 11:25:39;;;;;;;2.30;0.43;;;23.70;93.90;;;;;;5044712;28;20053;-75
2021/06/21 11:28:05;;;;;;;1.27;0.35;;;24.00;94.70;;;;;;5043918;28;20029;-75
2021/06/21 11:30:38;;;;;;;0.98;0.30;;;24.30;93.30;;;;;;5051770;28;20523;-76
2021/06/21 11:33:14;;;;;;;1.98;0.20;;;24.40;91.30;;;;;;5042787;28;20519;-75
2021/06/21 11:35:57;;;;;;;0.52;0.30;;;24.00;91.20;;;;;;5051522;28;20163;-75
2021/06/21 11:38:25;;;;;;;1.13;0.30;;;23.60;92.00;;;;;;5044176;28;20040;-75
2021/06/21 11:41:20;;;;;;;1.65;0.40;;;23.50;92.90;;;;;;5050338;28;20108;-75
2021/06/21 11:43:48;;;;;;;3.63;0.30;;;23.70;92.40;;;;;;5051951;28;20028;-76
2021/06/21 11:46:40;;;;;;;3.42;0.55;;;23.70;93.00;;;;;;5045305;28;20029;-75
2021/06/21 11:49:19;;;;;;;1.52;0.40;;;23.70;92.70;;;;;;5047197;28;20040;-77
2021/06/21 11:51:59;;;;;;;2.28;0.60;;;24.00;92.40;;;;;;5049304;28;20039;-76
2021/06/21 11:54:25;;;;;;;3.40;0.40;;;24.30;90.80;;;;;;5048782;28;20025;-76
2021/06/21 11:56:53;;;;;;;1.38;0.50;;;24.10;90.20;;;;;;5050353;28;20048;-77
2021/06/21 11:59:29;;;;;;;3.53;0.82;;;24.20;90.30;;;;;;5051348;28;20025;-76
2021/06/21 12:02:05;;;;;;;1.77;0.80;;;24.20;90.30;;;;;;5043257;28;20029;-77
2021/06/21 12:04:31;;;;;;;1.25;0.30;;;24.30;90.40;;;;;;5051229;28;20029;-76
2021/06/21 12:06:57;;;;;;;0.68;0.38;;;24.30;90.20;;;;;;5043102;28;20025;-76
2021/06/21 12:09:23;;;;;;;1.40;0.43;;;24.50;90.50;;;;;;5051573;28;20083;-76
2021/06/21 12:11:52;;;;;;;0.75;0.20;;;24.30;90.40;;;;;;5042889;28;20104;-76
2021/06/21 12:14:24;;;;;;;3.05;0.45;;;24.00;91.60;;;;;;5051179;28;20493;-76
2021/06/21 12:17:00;;;;;;;2.47;0.50;;;23.80;91.40;;;;;;5042942;28;20025;-76
2021/06/21 12:19:28;;;;;;;0.75;0.38;;;23.80;91.90;;;;;;5051109;28;20493;-76
2021/06/21 12:21:53;;;;;;;5.25;0.52;;;24.00;91.10;;;;;;5043073;28;20083;-76
2021/06/21 12:24:28;;;;;;;3.47;0.55;;;23.90;92.40;;;;;;5050824;28;20029;-77
2021/06/21 12:27:02;;;;;;;1.80;0.68;;;23.40;92.50;;;;;;5043751;28;20370;-76
2021/06/21 12:29:33;;;;;;;2.55;0.77;;;23.30;92.90;;;;;;5051300;28;20028;-76
2021/06/21 12:32:04;;;;;;;2.17;0.50;;;23.10;93.20;;;;;;5043550;28;20462;-76
2021/06/21 12:34:50;;;;;;;5.88;0.63;;;23.20;94.60;;;;;;5051060;28;20021;-76
2021/06/21 12:37:17;;;;;;;3.65;0.55;;;23.30;94.40;;;;;;5042176;28;20536;-76
2021/06/21 12:39:44;;;;;;;1.77;0.50;;;23.20;95.30;;;;;;5050504;28;20028;-76
2021/06/21 12:42:12;;;;;;;2.63;0.70;;;23.50;94.80;;;;;;5042235;28;20025;-76
2021/06/21 12:44:39;;;;;;;4.72;0.57;;;23.50;94.60;;;;;;5050496;28;20034;-76
2021/06/21 12:47:22;;;;;;;3.92;0.80;;;23.40;94.00;;;;;;5041648;28;20052;-76
2021/06/21 12:49:50;;;;;;;1.43;0.40;;;23.30;92.60;;;;;;5050297;28;20032;-78
2021/06/21 12:52:21;;;;;;;1.10;0.40;;;23.30;92.20;;;;;;5040453;28;20033;-76
2021/06/21 12:54:55;;;;;;;2.45;0.70;;;23.40;92.10;;;;;;5050370;28;20067;-76